createdAt,value
2023-12-18T00:01:03.292Z,77.40
2023-12-18T00:03:42.785Z,77.37
2023-12-18T00:06:09.607Z,77.46
2023-12-18T00:08:36.348Z,77.39
2023-12-18T00:11:03.265Z,77.48
2023-12-18T00:13:30.114Z,77.49
2023-12-18T00:15:56.841Z,77.52
2023-12-18T00:18:23.689Z,77.49
2023-12-18T00:20:53.508Z,77.51
2023-12-18T00:23:20.516Z,77.56
2023-12-18T00:25:47.233Z,77.55
2023-12-18T00:28:13.977Z,77.62
2023-12-18T00:30:40.799Z,77.70
2023-12-18T00:33:07.718Z,77.70
2023-12-18T00:35:34.549Z,77.67
2023-12-18T00:38:01.374Z,77.75
2023-12-18T00:40:28.186Z,77.69
2023-12-18T00:42:54.997Z,77.78
2023-12-18T00:45:21.792Z,77.78
2023-12-18T00:47:48.631Z,77.76
2023-12-18T00:50:15.619Z,77.69
2023-12-18T00:52:42.449Z,77.74
2023-12-18T00:55:09.517Z,77.78
2023-12-18T00:57:36.303Z,77.71
2023-12-18T01:00:04.951Z,77.72
2023-12-18T01:02:31.965Z,77.85
2023-12-18T01:04:58.744Z,77.87
2023-12-18T01:07:25.542Z,77.89
2023-12-18T01:09:56.858Z,78.04
2023-12-18T01:12:23.640Z,78.11
2023-12-18T01:14:51.082Z,77.98
2023-12-18T01:17:22.497Z,78.10
2023-12-18T01:19:53.723Z,78.17
2023-12-18T01:22:20.816Z,78.23
2023-12-18T01:24:47.597Z,78.38
2023-12-18T01:27:14.385Z,78.34
2023-12-18T01:29:41.525Z,78.36
2023-12-18T01:32:11.473Z,78.27
2023-12-18T01:34:38.956Z,78.42
2023-12-18T01:37:06.277Z,78.45
2023-12-18T01:39:33.057Z,78.53
2023-12-18T01:42:00.130Z,78.49
2023-12-18T01:44:27.303Z,78.60
2023-12-18T01:46:56.137Z,78.54
2023-12-18T01:49:24.127Z,78.71
2023-12-18T01:51:51.056Z,78.72
2023-12-18T01:54:22.965Z,78.73
2023-12-18T01:56:55.584Z,78.69
2023-12-18T01:59:24.328Z,78.77
2023-12-18T02:01:52.178Z,78.79
2023-12-18T02:04:20.281Z,78.75
2023-12-18T02:06:48.255Z,78.89
2023-12-18T02:09:16.189Z,78.94
2023-12-18T02:11:46.184Z,78.88
2023-12-18T02:14:13.720Z,78.90
2023-12-18T02:16:41.424Z,78.89
2023-12-18T02:19:24.537Z,78.93
2023-12-18T02:21:51.671Z,78.92
2023-12-18T02:24:19.349Z,78.98
2023-12-18T02:26:47.587Z,79.01
2023-12-18T02:29:14.935Z,78.97
2023-12-18T02:31:42.917Z,78.98
2023-12-18T02:34:09.994Z,79.08
2023-12-18T02:36:36.931Z,79.15
2023-12-18T02:39:03.768Z,79.13
2023-12-18T02:41:30.570Z,79.17
2023-12-18T02:43:57.801Z,79.16
2023-12-18T02:46:24.532Z,79.31
2023-12-18T02:48:51.407Z,79.23
2023-12-18T02:51:18.196Z,79.17
2023-12-18T02:53:44.952Z,79.17
2023-12-18T02:56:13.697Z,79.20
2023-12-18T02:58:41.283Z,79.25
2023-12-18T03:01:08.514Z,79.32
2023-12-18T03:03:35.447Z,79.25
2023-12-18T03:06:02.575Z,79.30
2023-12-18T03:08:29.527Z,79.33
2023-12-18T03:10:56.360Z,79.42
2023-12-18T03:13:23.190Z,79.41
2023-12-18T03:15:50.098Z,79.36
2023-12-18T03:18:17.056Z,79.35
2023-12-18T03:20:43.853Z,79.39
2023-12-18T03:23:10.591Z,79.42
2023-12-18T03:25:37.419Z,79.42
2023-12-18T03:28:04.357Z,79.56
2023-12-18T03:30:31.194Z,79.68
2023-12-18T03:33:00.144Z,79.57
2023-12-18T03:35:26.926Z,79.61
2023-12-18T03:37:53.702Z,79.67
2023-12-18T03:40:20.432Z,79.68
2023-12-18T03:42:47.186Z,79.71
2023-12-18T03:45:14.147Z,79.69
2023-12-18T03:47:41.385Z,79.75
2023-12-18T03:50:08.613Z,79.81
2023-12-18T03:52:35.623Z,79.78
2023-12-18T03:55:02.686Z,80.01
2023-12-18T03:57:29.465Z,80.02
2023-12-18T03:59:58.193Z,80.02
2023-12-18T04:02:25.495Z,80.03
2023-12-18T04:04:53.256Z,80.00
2023-12-18T04:07:20.380Z,80.04
2023-12-18T04:09:47.296Z,80.02
2023-12-18T04:12:14.316Z,80.00
2023-12-18T04:14:43.566Z,80.07
2023-12-18T04:17:10.288Z,79.98
2023-12-18T04:19:37.088Z,80.00
2023-12-18T04:22:04.136Z,80.04
2023-12-18T04:24:30.909Z,80.13
2023-12-18T04:26:57.693Z,79.99
2023-12-18T04:29:24.380Z,80.06
2023-12-18T04:31:52.007Z,80.25
2023-12-18T04:34:18.739Z,80.19
2023-12-18T04:36:45.699Z,80.16
2023-12-18T04:39:12.742Z,80.16
2023-12-18T04:41:39.573Z,80.12
2023-12-18T04:44:06.470Z,80.08
2023-12-18T04:46:37.138Z,80.19
2023-12-18T04:49:05.760Z,80.18
2023-12-18T04:51:33.096Z,80.22
2023-12-18T04:54:00.561Z,80.37
2023-12-18T04:56:27.504Z,80.42
2023-12-18T04:58:54.328Z,80.45
2023-12-18T05:01:21.313Z,80.46
2023-12-18T05:03:48.191Z,80.41
2023-12-18T05:06:24.487Z,80.39
2023-12-18T05:08:51.759Z,80.41
2023-12-18T05:11:20.700Z,80.41
2023-12-18T05:13:47.689Z,80.49
2023-12-18T05:16:15.856Z,80.62
2023-12-18T05:18:43.348Z,80.50
2023-12-18T05:21:11.442Z,80.56
2023-12-18T05:23:39.468Z,80.51
2023-12-18T05:26:06.542Z,80.66
2023-12-18T05:28:34.512Z,80.67
2023-12-18T05:31:01.346Z,80.60
2023-12-18T05:33:28.180Z,80.67
2023-12-18T05:35:54.945Z,80.59
2023-12-18T05:38:21.691Z,80.67
2023-12-18T05:40:48.525Z,80.73
2023-12-18T05:43:15.270Z,80.73
2023-12-18T05:45:42.073Z,80.71
2023-12-18T05:48:08.998Z,80.77
2023-12-18T05:50:35.925Z,80.70
2023-12-18T05:53:02.742Z,80.79
2023-12-18T05:55:29.477Z,80.80
2023-12-18T05:57:56.277Z,80.86
2023-12-18T06:00:23.152Z,80.84
2023-12-18T06:02:49.918Z,80.83
2023-12-18T06:05:16.805Z,80.94
2023-12-18T06:07:43.561Z,80.90
2023-12-18T06:10:10.415Z,80.86
2023-12-18T06:12:37.839Z,80.89
2023-12-18T06:15:06.220Z,80.91
2023-12-18T06:17:33.079Z,80.95
2023-12-18T06:19:59.947Z,80.77
2023-12-18T06:22:26.834Z,80.96
2023-12-18T06:24:53.698Z,80.87
2023-12-18T06:27:20.644Z,80.84
2023-12-18T06:29:47.636Z,80.89
2023-12-18T06:32:15.002Z,81.01
2023-12-18T06:34:43.526Z,80.93
2023-12-18T06:37:10.555Z,81.09
2023-12-18T06:39:37.343Z,81.02
2023-12-18T06:42:04.500Z,80.99
2023-12-18T06:44:31.288Z,81.01
2023-12-18T06:46:58.130Z,81.09
2023-12-18T06:49:25.045Z,81.21
2023-12-18T06:51:52.113Z,81.12
2023-12-18T06:54:18.974Z,81.19
2023-12-18T06:56:46.413Z,81.26
2023-12-18T06:59:13.262Z,81.29
2023-12-18T07:01:40.155Z,81.37
2023-12-18T07:04:07.046Z,81.37
2023-12-18T07:06:34.414Z,81.35
2023-12-18T07:09:01.279Z,81.48
2023-12-18T07:11:28.174Z,81.54
2023-12-18T07:13:54.924Z,81.55
2023-12-18T07:16:22.981Z,81.62
2023-12-18T07:18:50.015Z,81.59
2023-12-18T07:21:17.113Z,81.72
2023-12-18T07:23:43.955Z,81.74
2023-12-18T07:26:14.004Z,81.70
2023-12-18T07:28:41.792Z,81.85
2023-12-18T07:31:09.257Z,81.78
2023-12-18T07:33:36.150Z,81.91
2023-12-18T07:36:03.685Z,81.91
2023-12-18T07:38:30.885Z,81.84
2023-12-18T07:40:57.755Z,81.87
2023-12-18T07:43:24.536Z,81.88
2023-12-18T07:45:51.362Z,81.99
2023-12-18T07:48:22.065Z,81.98
2023-12-18T07:50:48.994Z,81.88
2023-12-18T07:53:15.919Z,81.88
2023-12-18T07:55:42.916Z,81.84
2023-12-18T07:58:09.692Z,84.12
2023-12-18T08:00:36.668Z,84.51
2023-12-18T08:03:03.993Z,84.37
2023-12-18T08:05:31.496Z,83.84
2023-12-18T08:07:58.383Z,83.29
2023-12-18T08:10:25.315Z,83.01
2023-12-18T08:12:52.324Z,82.40
2023-12-18T08:15:19.332Z,81.77
2023-12-18T08:17:46.205Z,81.35
2023-12-18T08:20:14.195Z,81.09
2023-12-18T08:22:41.126Z,80.95
2023-12-18T08:25:08.376Z,80.75
2023-12-18T08:27:35.566Z,80.77
2023-12-18T08:30:09.574Z,80.60
2023-12-18T08:32:36.328Z,80.83
2023-12-18T08:35:03.283Z,80.73
2023-12-18T08:37:30.090Z,80.61
2023-12-18T08:39:56.942Z,80.51
2023-12-18T08:42:23.881Z,80.51
2023-12-18T08:44:50.924Z,80.57
2023-12-18T08:47:17.993Z,80.57
2023-12-18T08:49:44.797Z,80.57
2023-12-18T08:52:11.673Z,80.47
2023-12-18T08:54:38.476Z,80.46
2023-12-18T08:57:05.257Z,80.44
2023-12-18T08:59:32.035Z,80.45
2023-12-18T09:01:58.831Z,80.42
2023-12-18T09:04:26.100Z,80.32
2023-12-18T09:06:53.175Z,80.26
2023-12-18T09:09:21.393Z,80.29
2023-12-18T09:11:48.307Z,80.37
2023-12-18T09:14:15.074Z,80.28
2023-12-18T09:16:41.895Z,80.25
2023-12-18T09:19:09.087Z,80.28
2023-12-18T09:21:36.058Z,80.22
2023-12-18T09:24:02.953Z,80.05
2023-12-18T09:26:29.773Z,80.08
2023-12-18T09:28:56.862Z,80.15
2023-12-18T09:31:24.146Z,80.15
2023-12-18T09:33:51.076Z,80.15
2023-12-18T09:36:18.617Z,80.05
2023-12-18T09:38:45.485Z,79.97
2023-12-18T09:41:21.286Z,79.98
2023-12-18T09:43:50.793Z,79.93
2023-12-18T09:46:21.492Z,79.87
2023-12-18T09:48:49.478Z,79.93
2023-12-18T09:51:24.503Z,79.81
2023-12-18T09:53:53.189Z,79.37
2023-12-18T09:56:24.233Z,79.08
2023-12-18T09:58:55.541Z,78.89
2023-12-18T10:01:23.702Z,78.55
2023-12-18T10:03:50.776Z,78.34
2023-12-18T10:06:18.803Z,77.80
2023-12-18T10:08:50.581Z,77.25
2023-12-18T10:11:26.179Z,76.97
2023-12-18T10:13:54.369Z,76.66
2023-12-18T10:16:22.354Z,76.29
2023-12-18T10:18:50.179Z,76.27
2023-12-18T10:21:23.448Z,76.43
2023-12-18T10:23:54.089Z,76.75
2023-12-18T10:26:22.526Z,76.72
2023-12-18T10:28:53.457Z,76.73
2023-12-18T10:31:20.991Z,76.81
2023-12-18T10:33:48.094Z,76.70
2023-12-18T10:36:19.411Z,76.36
2023-12-18T10:38:50.722Z,76.42
2023-12-18T10:41:23.416Z,76.22
2023-12-18T10:43:51.013Z,75.96
2023-12-18T10:46:19.135Z,76.07
2023-12-18T10:48:51.636Z,76.12
2023-12-18T10:51:21.055Z,75.55
2023-12-18T10:53:49.187Z,74.89
2023-12-18T10:56:17.810Z,74.47
2023-12-18T10:58:45.419Z,73.65
2023-12-18T11:01:15.782Z,73.24
2023-12-18T11:03:43.938Z,73.15
2023-12-18T11:06:11.788Z,72.84
2023-12-18T11:08:38.631Z,72.87
2023-12-18T11:11:06.509Z,72.32
2023-12-18T11:13:48.604Z,72.38
2023-12-18T11:16:15.297Z,72.27
2023-12-18T11:19:16.057Z,71.68
2023-12-18T11:21:49.774Z,71.90
2023-12-18T11:24:17.977Z,71.70
2023-12-18T11:26:46.822Z,71.43
2023-12-18T11:29:33.394Z,71.06
2023-12-18T11:32:00.256Z,70.82
2023-12-18T11:34:27.129Z,71.05
2023-12-18T11:36:54.080Z,70.98
2023-12-18T11:39:28.208Z,70.88
2023-12-18T11:41:55.008Z,70.65
2023-12-18T11:44:28.304Z,70.69
2023-12-18T11:46:55.441Z,70.86
2023-12-18T11:49:23.588Z,70.89
2023-12-18T11:51:50.838Z,70.82
2023-12-18T11:54:23.802Z,70.85
2023-12-18T11:56:52.106Z,70.76
2023-12-18T11:59:20.355Z,70.53
2023-12-18T12:01:47.857Z,70.20
2023-12-18T12:04:16.758Z,70.24
2023-12-18T12:06:46.715Z,70.15
2023-12-18T12:09:13.547Z,70.04
2023-12-18T12:11:40.421Z,69.86
2023-12-18T12:14:07.236Z,69.87
2023-12-18T12:16:34.019Z,69.81
2023-12-18T12:19:03.818Z,69.81
2023-12-18T12:21:38.898Z,69.83
2023-12-18T12:24:12.263Z,69.76
2023-12-18T12:26:39.159Z,69.83
2023-12-18T12:29:06.729Z,69.72
2023-12-18T12:31:35.267Z,69.61
2023-12-18T12:34:02.989Z,69.56
2023-12-18T12:36:30.994Z,69.43
2023-12-18T12:38:58.629Z,69.48
2023-12-18T12:41:25.588Z,69.47
2023-12-18T12:43:52.746Z,69.51
2023-12-18T12:46:26.551Z,69.43
2023-12-18T12:48:56.756Z,69.23
2023-12-18T12:51:24.291Z,69.25
2023-12-18T12:53:51.192Z,69.21
2023-12-18T12:56:18.046Z,69.16
2023-12-18T12:58:44.828Z,69.20
2023-12-18T13:01:11.695Z,69.21
2023-12-18T13:03:38.675Z,69.20
2023-12-18T13:06:05.880Z,69.10
2023-12-18T13:08:33.817Z,69.14
2023-12-18T13:11:02.032Z,69.15
2023-12-18T13:13:29.250Z,69.10
2023-12-18T13:15:56.083Z,69.16
2023-12-18T13:18:23.022Z,69.19
2023-12-18T13:20:49.970Z,69.18
2023-12-18T13:23:16.808Z,69.21
2023-12-18T13:25:43.608Z,69.12
2023-12-18T13:28:10.490Z,69.08
2023-12-18T13:30:37.674Z,69.02
2023-12-18T13:33:04.837Z,69.07
2023-12-18T13:35:31.766Z,69.12
2023-12-18T13:37:59.733Z,69.16
2023-12-18T13:40:28.985Z,69.07
2023-12-18T13:42:55.971Z,69.05
2023-12-18T13:45:22.931Z,69.03
2023-12-18T13:47:51.704Z,69.08
2023-12-18T13:50:18.521Z,68.98
2023-12-18T13:52:45.793Z,68.88
2023-12-18T13:55:13.108Z,68.94
2023-12-18T13:57:46.460Z,68.95
2023-12-18T14:00:17.144Z,69.05
2023-12-18T14:02:44.433Z,69.09
2023-12-18T14:05:11.308Z,69.04
2023-12-18T14:07:39.278Z,69.07
2023-12-18T14:10:08.061Z,69.05
2023-12-18T14:12:36.010Z,69.06
2023-12-18T14:15:04.010Z,69.01
2023-12-18T14:17:30.958Z,69.08
2023-12-18T14:20:04.277Z,69.05
2023-12-18T14:22:31.210Z,69.03
2023-12-18T14:24:58.071Z,69.06
2023-12-18T14:27:24.941Z,69.06
2023-12-18T14:29:51.737Z,69.03
2023-12-18T14:32:18.653Z,69.05
2023-12-18T14:34:45.562Z,69.02
2023-12-18T14:37:12.763Z,68.83
2023-12-18T14:39:39.534Z,68.83
2023-12-18T14:42:08.148Z,68.99
2023-12-18T14:44:35.505Z,68.87
2023-12-18T14:47:02.319Z,68.97
2023-12-18T14:49:29.538Z,68.94
2023-12-18T14:51:57.157Z,69.00
2023-12-18T14:54:24.055Z,68.96
2023-12-18T14:56:53.395Z,69.00
2023-12-18T14:59:21.174Z,69.05
2023-12-18T15:01:48.216Z,68.97
2023-12-18T15:04:19.597Z,68.98
2023-12-18T15:06:53.453Z,69.07
2023-12-18T15:09:20.658Z,69.03
2023-12-18T15:11:47.907Z,69.10
2023-12-18T15:14:14.748Z,69.11
2023-12-18T15:16:42.346Z,69.07
2023-12-18T15:19:09.425Z,69.16
2023-12-18T15:21:38.561Z,69.17
2023-12-18T15:24:09.686Z,69.08
2023-12-18T15:26:38.326Z,69.24
2023-12-18T15:29:05.170Z,69.15
2023-12-18T15:31:32.256Z,69.27
2023-12-18T15:34:02.197Z,69.28
2023-12-18T15:36:30.627Z,69.25
2023-12-18T15:38:57.418Z,69.37
2023-12-18T15:41:24.227Z,69.40
2023-12-18T15:43:51.116Z,69.41
2023-12-18T15:46:17.873Z,69.31
2023-12-18T15:48:45.035Z,69.31
2023-12-18T15:51:11.994Z,69.28
2023-12-18T15:53:39.843Z,69.33
2023-12-18T15:56:07.012Z,69.25
2023-12-18T15:58:33.914Z,69.23
2023-12-18T16:01:00.733Z,69.30
2023-12-18T16:03:27.648Z,69.31
2023-12-18T16:05:56.069Z,69.31
2023-12-18T16:08:23.035Z,69.14
2023-12-18T16:10:50.286Z,69.30
2023-12-18T16:13:17.026Z,69.28
2023-12-18T16:15:43.932Z,69.35
2023-12-18T16:18:10.872Z,69.28
2023-12-18T16:20:37.810Z,69.31
2023-12-18T16:23:04.930Z,69.38
2023-12-18T16:25:31.797Z,69.47
2023-12-18T16:27:58.675Z,69.39
2023-12-18T16:30:25.569Z,69.41
2023-12-18T16:32:52.472Z,69.40
2023-12-18T16:35:19.529Z,69.49
2023-12-18T16:37:46.372Z,69.44
2023-12-18T16:40:13.416Z,69.63
2023-12-18T16:42:40.480Z,69.57
2023-12-18T16:45:08.451Z,69.60
2023-12-18T16:47:35.256Z,69.57
2023-12-18T16:50:02.427Z,69.57
2023-12-18T16:52:32.610Z,69.57
2023-12-18T16:55:00.326Z,69.57
2023-12-18T16:57:27.548Z,69.70
2023-12-18T16:59:59.576Z,69.68
2023-12-18T17:02:29.195Z,69.73
2023-12-18T17:04:55.985Z,69.56
2023-12-18T17:07:23.952Z,69.65
2023-12-18T17:09:50.778Z,69.76
2023-12-18T17:12:17.643Z,69.72
2023-12-18T17:14:48.548Z,69.69
2023-12-18T17:17:15.330Z,69.80
2023-12-18T17:19:42.134Z,69.69
2023-12-18T17:22:08.920Z,69.84
2023-12-18T17:24:35.739Z,69.93
2023-12-18T17:27:02.736Z,70.01
2023-12-18T17:29:29.553Z,70.01
2023-12-18T17:31:56.433Z,69.98
2023-12-18T17:34:23.254Z,69.98
2023-12-18T17:36:50.208Z,70.07
2023-12-18T17:39:17.066Z,70.09
2023-12-18T17:41:43.868Z,70.14
2023-12-18T17:44:10.707Z,70.08
2023-12-18T17:46:39.280Z,70.01
2023-12-18T17:49:06.935Z,70.10
2023-12-18T17:51:33.780Z,70.16
2023-12-18T17:54:02.099Z,70.10
2023-12-18T17:56:29.027Z,70.16
2023-12-18T17:58:55.806Z,70.30
2023-12-18T18:01:22.751Z,70.27
2023-12-18T18:03:49.635Z,70.22
2023-12-18T18:06:19.889Z,70.23
2023-12-18T18:08:47.326Z,70.29
2023-12-18T18:11:14.784Z,70.45
2023-12-18T18:13:41.523Z,70.46
2023-12-18T18:16:08.439Z,70.55
2023-12-18T18:18:35.339Z,70.54
2023-12-18T18:21:02.183Z,70.59
2023-12-18T18:23:28.970Z,70.61
2023-12-18T18:25:55.920Z,70.63
2023-12-18T18:28:22.752Z,70.67
2023-12-18T18:30:50.725Z,70.66
2023-12-18T18:33:17.880Z,70.66
2023-12-18T18:35:45.414Z,70.68
2023-12-18T18:38:12.499Z,70.70
2023-12-18T18:40:41.668Z,70.71
2023-12-18T18:43:08.419Z,70.65
2023-12-18T18:45:36.213Z,70.72
2023-12-18T18:48:04.303Z,70.72
2023-12-18T18:50:31.108Z,70.71
2023-12-18T18:52:57.875Z,70.89
2023-12-18T18:55:24.757Z,70.87
2023-12-18T18:57:52.011Z,70.86
2023-12-18T19:00:20.463Z,70.91
2023-12-18T19:02:47.282Z,70.90
2023-12-18T19:05:16.339Z,70.97
2023-12-18T19:07:43.462Z,71.13
2023-12-18T19:10:10.672Z,71.17
2023-12-18T19:12:41.958Z,71.07
2023-12-18T19:15:08.780Z,71.08
2023-12-18T19:17:36.524Z,71.13
2023-12-18T19:20:03.951Z,71.08
2023-12-18T19:22:30.846Z,71.08
2023-12-18T19:24:57.716Z,71.11
2023-12-18T19:27:24.564Z,70.99
2023-12-18T19:29:51.457Z,70.86
2023-12-18T19:32:18.685Z,70.77
2023-12-18T19:34:46.378Z,70.82
2023-12-18T19:37:15.397Z,70.81
2023-12-18T19:39:42.170Z,70.75
2023-12-18T19:42:08.952Z,70.72
2023-12-18T19:44:36.139Z,70.62
2023-12-18T19:47:03.215Z,70.71
2023-12-18T19:49:30.062Z,70.76
2023-12-18T19:51:57.086Z,70.71
2023-12-18T19:54:24.449Z,70.60
2023-12-18T19:56:51.629Z,70.69
2023-12-18T19:59:18.418Z,70.63
2023-12-18T20:01:47.086Z,70.63
2023-12-18T20:04:16.377Z,70.48
2023-12-18T20:06:45.090Z,70.47
2023-12-18T20:09:11.949Z,70.43
2023-12-18T20:11:39.392Z,70.38
2023-12-18T20:14:06.205Z,70.33
2023-12-18T20:16:33.310Z,70.21
2023-12-18T20:19:00.345Z,70.26
2023-12-18T20:21:27.386Z,70.31
2023-12-18T20:23:54.463Z,70.29
2023-12-18T20:26:21.274Z,70.23
2023-12-18T20:28:48.064Z,70.19
2023-12-18T20:31:14.937Z,70.32
2023-12-18T20:33:42.070Z,70.22
2023-12-18T20:36:08.949Z,70.15
2023-12-18T20:38:35.800Z,70.19
2023-12-18T20:41:02.651Z,70.19
2023-12-18T20:43:30.211Z,70.27
2023-12-18T20:46:05.634Z,70.31
2023-12-18T20:48:35.013Z,70.28
2023-12-18T20:51:01.910Z,70.21
2023-12-18T20:53:31.601Z,70.22
2023-12-18T20:56:00.587Z,69.99
2023-12-18T20:58:28.164Z,70.08
2023-12-18T21:00:55.174Z,70.15
2023-12-18T21:03:22.230Z,70.11
2023-12-18T21:05:49.270Z,70.24
2023-12-18T21:08:17.543Z,70.15
2023-12-18T21:10:44.871Z,70.15
2023-12-18T21:13:16.078Z,70.00
2023-12-18T21:15:43.924Z,69.96
2023-12-18T21:18:10.939Z,69.93
2023-12-18T21:20:37.796Z,70.01
2023-12-18T21:23:05.128Z,69.82
2023-12-18T21:25:32.433Z,69.79
2023-12-18T21:28:00.486Z,69.64
2023-12-18T21:30:28.160Z,69.65
2023-12-18T21:32:56.097Z,69.72
2023-12-18T21:35:23.189Z,69.76
2023-12-18T21:37:50.031Z,69.71
2023-12-18T21:40:17.297Z,69.73
2023-12-18T21:42:45.082Z,69.69
2023-12-18T21:45:12.244Z,69.75
2023-12-18T21:47:39.952Z,69.83
2023-12-18T21:50:07.456Z,69.89
2023-12-18T21:52:34.366Z,69.91
2023-12-18T21:55:02.436Z,69.89
2023-12-18T21:57:29.259Z,69.92
2023-12-18T21:59:56.215Z,69.91
2023-12-18T22:02:23.029Z,69.89
2023-12-18T22:04:49.757Z,69.93
2023-12-18T22:07:16.620Z,69.95
2023-12-18T22:09:43.482Z,69.89
2023-12-18T22:12:10.829Z,69.97
2023-12-18T22:14:37.737Z,69.86
2023-12-18T22:17:05.037Z,69.71
2023-12-18T22:19:31.928Z,69.72
2023-12-18T22:21:58.911Z,69.67
2023-12-18T22:24:26.385Z,69.60
2023-12-18T22:26:53.196Z,69.51
2023-12-18T22:29:20.023Z,69.57
2023-12-18T22:31:47.007Z,69.47
2023-12-18T22:34:14.145Z,69.53
2023-12-18T22:36:41.098Z,69.53
2023-12-18T22:39:11.857Z,69.38
2023-12-18T22:41:41.001Z,69.36
2023-12-18T22:44:08.114Z,69.39
2023-12-18T22:46:35.056Z,69.54
2023-12-18T22:49:02.283Z,69.47
2023-12-18T22:51:29.196Z,69.36
2023-12-18T22:53:55.947Z,69.32
2023-12-18T22:56:23.953Z,69.16
2023-12-18T22:58:50.749Z,68.94
2023-12-18T23:01:17.680Z,68.82
2023-12-18T23:03:44.614Z,68.74
2023-12-18T23:06:11.351Z,68.67
2023-12-18T23:08:38.148Z,68.60
2023-12-18T23:11:04.912Z,68.56
2023-12-18T23:13:31.660Z,68.60
2023-12-18T23:15:58.447Z,68.49
2023-12-18T23:18:25.377Z,68.43
2023-12-18T23:20:52.396Z,68.22
2023-12-18T23:23:19.169Z,68.22
2023-12-18T23:25:46.136Z,68.04
2023-12-18T23:28:12.860Z,68.03
2023-12-18T23:30:39.701Z,67.84
2023-12-18T23:33:13.064Z,67.73
2023-12-18T23:35:44.649Z,67.54
2023-12-18T23:38:11.396Z,67.66
2023-12-18T23:40:38.618Z,67.48
2023-12-18T23:43:05.451Z,67.45
2023-12-18T23:45:32.519Z,67.42
2023-12-18T23:47:59.379Z,67.41
2023-12-18T23:50:26.199Z,67.35
2023-12-18T23:52:53.072Z,67.31
2023-12-18T23:55:19.873Z,67.16
2023-12-18T23:57:46.715Z,67.09
